Terminal Aerodrome Forecast
Issued by NWS

Home | Current Version | Previous Version | Text Only | Print | Product List | Glossary On
Versions: 1 2 3 4 5 6 7 8 9 10 11 12 13 14
792
FTUS43 KMQT 180943 AAA
TAFSAW
TAF AMD
KSAW 180943Z 1810/1906 23006KT 5SM BR SCT002 WS010/23035KT
     FM181400 23008KT P6SM SCT030 WS010/25035KT
     FM181700 22008KT P6SM FEW200
     FM190500 22004KT P6SM SCT120=

USA.gov is the U.S. government's official web portal to all federal, state and local government web resources and services.